Latest Weather Observations for Avalon

IDV60801

Issued at 10:05 pm EDT Sunday 23 November 2014 (issued every 30 minutes, with the page automatically refreshed every 10 minutes)

About weather observations | Map of weather stations | Latest weather observations for VIC | Other Formats
Station Details ID: 087113 Name: AVALON AIRPORT Lat: -38.03 Lon: 144.48 Height: 10.6 m
Data from the previous 72 hours. | See also: Recent months at Avalon
Date/Time
EDT
Temp
°C
App
Temp
°C
Dew
Point
Rel
Hum
%
Delta-T
°C
Wind Press
QNH
hPa
Press
MSL
hPa
Rain
since 9 am
mm
Dir
 
Spd
km/h
Gust
km/h
Spd
kts
Gust
kts
23/10:00pm 15.7 13.6 9.8 68 3.1 SE 11 13 6 7 1013.9 1013.9 0.0
23/09:30pm 16.3 14.1 9.5 64 3.5 ESE 11 13 6 7 1013.7 1013.7 0.0
23/09:00pm 16.2 13.4 8.7 61 3.8 ESE 13 15 7 8 1013.3 1013.3 0.0
23/08:30pm 16.4 13.7 9.1 62 3.8 SE 13 17 7 9 1013.4 1013.4 0.0
23/08:00pm 16.9 14.7 9.3 61 3.9 SSE 11 15 6 8 1013.5 1013.5 0.0
23/07:30pm 17.5 14.0 8.6 56 4.6 SSE 17 20 9 11 1013.2 1013.2 0.0
23/07:00pm 17.9 14.2 9.5 58 4.4 SSE 19 24 10 13 1013.2 1013.2 0.0
23/06:30pm 18.5 15.0 10.1 58 4.5 S 19 24 10 13 1012.9 1012.9 0.0
23/06:00pm 18.7 14.2 10.0 57 4.6 S 24 30 13 16 1012.8 1012.8 0.0
23/05:30pm 18.6 12.9 9.9 57 4.6 S 30 35 16 19 1012.8 1012.8 0.0
23/05:00pm 19.9 14.5 10.9 56 4.9 S 30 37 16 20 1012.3 1012.3 0.0
23/04:30pm 20.2 14.7 11.7 58 4.7 S 32 37 17 20 1011.9 1011.9 0.0
23/04:00pm 21.5 16.1 12.1 55 5.3 S 32 41 17 22 1011.5 1011.5 0.0
23/03:30pm 23.0 17.7 11.1 47 6.6 S 30 43 16 23 1011.4 1011.4 0.0
23/03:00pm 23.4 17.6 10.8 45 7.0 S 32 39 17 21 1011.3 1011.3 0.0
23/02:30pm 23.9 19.9 11.9 47 6.8 SE 24 30 13 16 1011.1 1011.1 0.0
23/02:00pm 23.4 19.4 10.5 44 7.1 ESE 22 28 12 15 1011.0 1011.0 0.0
23/01:30pm 22.9 18.5 10.3 45 6.9 ESE 24 30 13 16 1011.0 1011.0 0.0
23/01:00pm 22.6 18.6 11.7 50 6.1 ESE 24 32 13 17 1011.0 1011.0 0.0
23/12:30pm 22.3 19.0 12.8 55 5.4 ESE 22 28 12 15 1011.3 1011.3 0.0
23/12:00pm 22.2 18.8 11.3 50 6.1 ESE 20 26 11 14 1011.5 1011.5 0.0
23/11:30am 21.2 18.0 10.1 49 6.0 ESE 17 24 9 13 1012.0 1012.0 0.0
23/11:00am 21.6 20.0 11.6 53 5.6 E 11 17 6 9 1012.1 1012.1 0.0
23/10:30am 20.5 19.2 11.4 56 5.0 S 9 20 5 11 1012.4 1012.4 0.0
23/10:00am 19.5 17.4 11.3 59 4.5 S 13 19 7 10 1012.7 1012.7 0.0
23/09:30am 19.5 18.1 12.3 63 4.0 SSW 11 15 6 8 1012.9 1012.9 0.0
23/09:00am 18.4 17.1 12.6 69 3.2 SSW 11 17 6 9 1012.8 1012.8 0.0
23/08:30am 16.9 15.2 12.6 76 2.4 W 13 17 7 9 1012.7 1012.7 0.0
23/08:00am 16.5 14.2 13.0 80 1.9 WSW 17 20 9 11 1012.6 1012.6 0.0
23/07:30am 16.0 14.1 13.1 83 1.6 WSW 15 17 8 9 1012.2 1012.2 0.0
23/07:00am 15.1 14.3 12.8 86 1.3 W 9 11 5 6 1011.9 1011.9 0.0
23/06:30am 14.6 13.7 12.6 88 1.1 WNW 9 11 5 6 1011.7 1011.7 0.0
23/06:00am 14.3 13.3 12.3 88 1.1 NNW 9 11 5 6 1011.5 1011.5 0.0
23/05:30am 14.8 13.4 12.3 85 1.4 NW 11 15 6 8 1011.2 1011.2 0.0
23/05:00am 14.9 13.9 12.2 84 1.5 WNW 9 11 5 6 1011.1 1011.1 0.0
23/04:30am 15.6 13.9 12.5 82 1.7 W 13 15 7 8 1010.8 1010.8 0.0
23/04:00am 15.7 15.2 12.5 81 1.8 W 7 9 4 5 1010.6 1010.6 0.0
23/03:30am 15.6 14.3 12.4 81 1.8 W 11 15 6 8 1010.4 1010.4 0.0
23/03:00am 16.3 13.9 12.5 78 2.1 W 17 26 9 14 1010.2 1010.2 0.0
23/02:30am 16.0 13.0 12.4 79 2.0 WNW 20 26 11 14 1009.9 1009.9 0.0
23/02:00am 16.1 14.0 12.5 79 2.0 WNW 15 19 8 10 1009.9 1009.9 0.0
23/01:30am 16.6 14.2 12.6 77 2.2 WNW 17 22 9 12 1009.9 1009.9 0.0
23/01:00am 17.0 14.6 12.7 76 2.4 WNW 17 20 9 11 1010.0 1010.0 0.0
23/12:30am 17.8 15.4 12.7 72 2.8 WNW 17 20 9 11 1009.8 1009.8 0.0
23/12:00am 17.7 15.5 12.2 70 3.0 WNW 15 19 8 10 1009.5 1009.5 0.0
 
Date/Time
EDT
Temp
°C
App
Temp
°C
Dew
Point
Rel
Hum
%
Delta-T
°C
Wind Press
QNH
hPa
Press
MSL
hPa
Rain
since 9 am
mm
Dir
 
Spd
km/h
Gust
km/h
Spd
kts
Gust
kts
22/11:30pm 17.5 16.0 12.0 70 3.0 WNW 11 15 6 8 1009.2 1009.2 0.0
22/11:00pm 18.1 16.4 12.3 69 3.2 W 13 17 7 9 1009.1 1009.1 0.0
22/10:30pm 17.0 16.5 12.5 75 2.5 S 7 9 4 5 1009.0 1009.0 0.0
22/10:00pm 17.7 17.8 12.6 72 2.8 S 4 7 2 4 1008.5 1008.5 0.0
22/09:30pm 18.5 16.8 12.5 68 3.3 S 13 19 7 10 1007.7 1007.7 0.0
22/09:00pm 20.0 16.6 12.5 62 4.2 SSW 22 32 12 17 1007.0 1007.0 0.0
22/08:53pm 21.1 17.6 13.3 61 4.5 SSW 24 32 13 17 1006.7 1006.7 0.0
22/08:30pm 26.3 23.2 11.6 40 8.4 W 19 24 10 13 1005.7 1005.7 0.0
22/08:00pm 28.9 23.3 10.1 31 10.6 NNW 30 41 16 22 1004.9 1004.9 0.0
22/07:30pm 29.6 21.9 8.6 27 11.6 NNW 39 57 21 31 1004.9 1004.9 0.0
22/07:00pm 30.2 21.0 8.0 25 12.2 NNW 46 65 25 35 1003.9 1003.9 0.0
22/06:47pm 30.7 22.2 8.4 25 12.3 NNW 43 63 23 34 1003.5 1003.5 0.0
22/06:30pm 31.5 23.0 8.5 24 12.8 NNW 43 57 23 31 1003.7 1003.7 0.0
22/06:10pm 32.5 24.2 9.3 24 13.1 NNW 43 61 23 33 1004.0 1004.0 0.0
22/06:00pm 32.1 23.5 9.0 24 13.0 NNW 44 57 24 31 1004.0 1004.0 0.0
22/05:30pm 33.0 24.8 9.7 24 13.3 NNW 43 61 23 33 1003.8 1003.8 0.0
22/05:00pm 32.8 25.5 8.9 23 13.5 NNW 37 57 20 31 1004.2 1004.2 0.0
22/04:30pm 31.6 22.9 7.9 23 13.1 NNW 43 63 23 34 1004.5 1004.5 0.0
22/04:24pm 31.5 23.1 7.2 22 13.2 NNW 41 63 22 34 1004.4 1004.4 0.0
22/04:22pm 32.4 24.5 8.0 22 13.5 NW 39 54 21 29 1004.3 1004.3 0.0
22/04:03pm 31.7 25.2 6.7 21 13.5 N 30 48 16 26 1004.6 1004.6 0.0
22/04:00pm 32.3 26.2 6.5 20 14.0 N 28 37 15 20 1004.7 1004.7 0.0
22/03:33pm 31.8 24.8 6.8 21 13.5 N 33 54 18 29 1005.3 1005.3 0.0
22/03:30pm 31.9 24.8 6.2 20 13.8 NNW 33 48 18 26 1005.5 1005.5 0.0
22/03:00pm 30.7 23.8 6.6 22 13.0 N 32 46 17 25 1006.3 1006.3 0.0
22/02:30pm 31.7 25.4 7.4 22 13.3 N 30 43 16 23 1006.5 1006.5 0.0
22/02:17pm 29.2 22.4 5.3 22 12.4 N 30 48 16 26 1006.8 1006.8 0.0
22/02:00pm 30.1 24.9 7.3 24 12.4 N 24 33 13 18 1006.8 1006.8 0.0
22/01:30pm 28.1 21.4 7.4 27 11.1 N 32 46 17 25 1007.3 1007.3 0.0
22/01:00pm 26.7 21.1 8.6 32 9.9 N 28 37 15 20 1007.6 1007.6 0.0
22/12:30pm 26.1 20.1 8.6 33 9.5 NNE 30 43 16 23 1007.9 1007.9 0.0
22/12:00pm 23.9 17.2 7.5 35 8.6 NNE 32 46 17 25 1007.8 1007.8 0.0
22/11:58am 24.0 17.7 7.2 34 8.8 N 30 46 16 25 1007.8 1007.8 0.0
22/11:30am 25.3 20.5 8.7 35 9.0 N 24 35 13 19 1009.9 1009.9 0.0
22/11:00am 22.1 18.9 9.9 46 6.6 NNE 17 22 9 12 1009.8 1009.8 0.0
22/10:30am 20.1 17.1 10.5 54 5.2 NNE 17 22 9 12 1009.9 1009.9 0.0
22/10:00am 19.0 16.2 11.3 61 4.2 NNE 17 20 9 11 1010.2 1010.2 0.0
22/09:30am 17.7 15.5 12.2 70 3.0 NE 15 17 8 9 1010.3 1010.3 0.0
22/09:00am 16.4 15.5 11.3 72 2.8 N 7 11 4 6 1011.1 1011.1 0.0
22/08:30am 14.7 14.1 11.7 82 1.6 NNW 6 7 3 4 1011.0 1011.0 0.0
22/08:00am 13.9 13.0 11.4 85 1.3 NW 7 11 4 6 1011.0 1011.0 0.0
22/07:30am 13.1 12.4 12.0 93 0.6 NNW 7 11 4 6 1010.4 1010.4 0.0
22/07:00am 11.1 10.7 9.9 92 0.6 W 2 7 1 4 1010.4 1010.4 0.0
22/06:30am 10.5 9.0 9.1 91 0.7 SW 7 9 4 5 1010.5 1010.5 0.0
22/06:00am 11.4 10.1 10.0 91 0.7 N 7 11 4 6 1010.2 1010.2 0.0
22/05:30am 11.7 9.4 10.6 93 0.6 N 13 17 7 9 1009.7 1009.7 0.0
22/05:00am 10.7 8.9 9.6 93 0.6 N 9 13 5 7 1009.5 1009.5 0.0
22/04:30am 10.5 9.2 9.3 92 0.6 NNW 6 7 3 4 1009.7 1009.7 0.0
22/04:00am 10.7 9.3 9.6 93 0.6 NNE 7 9 4 5 1009.6 1009.6 0.0
22/03:30am 9.7 7.6 8.3 91 0.7 N 9 11 5 6 1010.0 1010.0 0.0
22/03:00am 10.0 8.0 8.6 91 0.7 N 9 13 5 7 1010.2 1010.2 0.0
22/02:30am 9.9 7.8 8.3 90 0.8 N 9 13 5 7 1010.3 1010.3 0.0
22/02:00am 10.4 8.4 8.8 90 0.8 N 9 11 5 6 1010.9 1010.9 0.0
22/01:30am 10.6 8.7 9.0 90 0.8 NNW 9 11 5 6 1011.5 1011.5 0.0
22/01:00am 10.4 8.7 8.5 88 0.9 WNW 7 9 4 5 1012.0 1012.0 0.0
22/12:30am 10.7 9.1 8.6 87 1.0 NW 7 7 4 4 1012.4 1012.4 0.0
22/12:00am 11.0 9.6 8.9 87 1.0 NW 6 7 3 4 1012.6 1012.6 0.0
 
Date/Time
EDT
Temp
°C
App
Temp
°C
Dew
Point
Rel
Hum
%
Delta-T
°C
Wind Press
QNH
hPa
Press
MSL
hPa
Rain
since 9 am
mm
Dir
 
Spd
km/h
Gust
km/h
Spd
kts
Gust
kts
21/11:30pm 11.5 9.9 8.7 83 1.4 W 7 9 4 5 1013.0 1013.0 0.0
21/11:00pm 11.8 11.5 8.8 82 1.5 CALM 0 0 0 0 1013.0 1013.0 0.0
21/10:30pm 12.7 12.7 9.7 82 1.5 CALM 0 0 0 0 1013.0 1013.0 0.0
21/10:00pm 12.0 10.5 9.0 82 1.5 SSE 7 9 4 5 1012.7 1012.7 0.0
21/09:30pm 12.6 10.4 9.2 80 1.7 S 11 13 6 7 1012.7 1012.7 0.0
21/09:00pm 13.4 10.8 9.3 76 2.1 S 13 15 7 8 1012.6 1012.6 0.0
21/08:30pm 14.1 11.4 9.1 72 2.5 SSE 13 15 7 8 1012.5 1012.5 0.0
21/08:00pm 15.4 12.5 9.5 68 3.1 SSE 15 19 8 10 1012.3 1012.3 0.0
21/07:30pm 17.0 13.7 9.7 62 3.8 S 17 20 9 11 1011.7 1011.7 0.0
21/07:00pm 17.9 14.7 9.8 59 4.3 SSE 17 20 9 11 1011.3 1011.3 0.0
21/06:30pm 18.3 14.6 9.6 57 4.6 SSE 19 22 10 12 1011.1 1011.1 0.0
21/06:00pm 19.2 15.6 9.9 55 5.0 SSE 19 24 10 13 1010.9 1010.9 0.0
21/05:30pm 20.1 16.0 10.2 53 5.3 S 22 28 12 15 1010.7 1010.7 0.0
21/05:00pm 20.2 16.6 10.0 52 5.5 SSE 19 24 10 13 1010.7 1010.7 0.0
21/04:30pm 19.9 15.4 10.0 53 5.3 SSE 24 32 13 17 1010.7 1010.7 0.0
21/04:00pm 21.1 16.7 10.3 50 5.9 S 24 33 13 18 1010.8 1010.8 0.0
21/03:30pm 21.4 17.4 10.6 50 5.9 S 22 30 12 16 1010.9 1010.9 0.0
21/03:00pm 22.0 17.5 10.2 47 6.4 S 24 33 13 18 1010.9 1010.9 0.0
21/02:30pm 22.9 19.0 7.0 36 8.2 W 17 24 9 13 1010.8 1010.8 0.0
21/02:00pm 22.0 17.1 6.7 37 7.8 WSW 22 33 12 18 1011.2 1011.2 0.0
21/01:30pm 21.9 17.7 7.3 39 7.5 WSW 19 28 10 15 1011.3 1011.3 0.0
21/01:00pm 21.1 16.8 8.0 43 6.8 SW 20 28 11 15 1011.4 1011.4 0.0
21/12:30pm 21.4 16.9 8.7 44 6.7 WNW 22 35 12 19 1011.5 1011.5 0.0
21/12:00pm 19.1 15.0 8.7 51 5.4 W 20 28 11 15 1011.6 1011.6 0.0
21/11:30am 18.4 13.2 8.9 54 4.9 W 26 37 14 20 1011.7 1011.7 0.0
21/11:00am 19.0 14.8 9.8 55 4.9 W 22 33 12 18 1011.6 1011.6 0.0
21/10:30am 18.7 14.6 10.0 57 4.6 W 22 30 12 16 1011.5 1011.5 0.0
21/10:00am 16.6 12.0 9.5 63 3.7 W 24 35 13 19 1011.1 1011.1 0.0
21/09:30am 16.9 12.7 11.0 68 3.2 WNW 24 32 13 17 1010.8 1010.8 0.0
21/09:00am 16.2 10.1 10.5 69 3.0 W 33 43 18 23 1010.9 1010.9 0.6
21/08:30am 15.7 11.2 11.3 75 2.4 W 26 35 14 19 1010.5 1010.5 0.6
21/08:00am 15.4 10.6 11.8 79 1.9 W 28 39 15 21 1010.5 1010.5 0.6
21/07:30am 14.7 10.1 12.4 86 1.3 W 28 37 15 20 1009.9 1009.9 0.6
21/07:29am 14.7 10.1 12.4 86 1.3 W 28 37 15 20 1009.9 1009.9 0.6
21/07:14am 14.8 12.0 12.7 87 1.2 W 19 26 10 14 1009.4 1009.4 0.6
21/07:00am 14.6 11.6 12.5 87 1.1 W 20 28 11 15 1009.0 1009.0 0.6
21/06:40am 14.6 11.9 13.0 90 0.9 W 19 28 10 15 1008.4 1008.4 0.6
21/06:30am 14.6 12.3 13.0 90 0.9 W 17 24 9 13 1008.2 1008.2 0.6
21/06:00am 15.1 14.4 13.3 89 1.0 WNW 9 17 5 9 1008.0 1008.0 0.6
21/05:52am 15.1 15.0 13.3 89 1.0 W 6 11 3 6 1007.9 1007.9 0.6
21/05:41am 15.0 13.9 13.2 89 1.0 WNW 11 17 6 9 1007.8 1007.8 0.6
21/05:30am 15.0 13.5 13.0 88 1.1 WNW 13 19 7 10 1007.6 1007.6 0.6
21/05:07am 15.6 13.8 13.3 86 1.3 W 15 20 8 11 1007.3 1007.3 0.6
21/05:00am 15.7 13.5 13.2 85 1.4 W 17 22 9 12 1007.3 1007.3 0.6
21/04:30am 15.8 13.9 12.9 83 1.6 W 15 22 8 12 1006.7 1006.7 0.6
21/04:20am 16.0 13.7 13.1 83 1.6 W 17 24 9 13 1006.7 1006.7 0.6
21/04:00am 15.9 13.7 13.2 84 1.5 WSW 17 24 9 13 1006.6 1006.6 0.6
21/03:30am 16.0 14.3 13.5 85 1.4 WSW 15 20 8 11 1006.2 1006.2 0.6
21/03:15am 16.1 14.6 13.2 83 1.6 WSW 13 26 7 14 1006.0 1006.0 0.6
21/03:00am 16.2 14.3 13.1 82 1.7 WSW 15 19 8 10 1006.1 1006.1 0.6
21/02:30am 16.5 13.7 13.2 81 1.8 W 20 28 11 15 1006.1 1006.1 0.6
21/02:00am 17.1 13.3 13.6 80 2.0 WSW 26 35 14 19 1005.8 1005.8 0.6
21/01:38am 17.9 13.4 14.8 82 1.8 W 32 50 17 27 1005.5 1005.5 0.6
21/01:30am 18.6 12.8 14.9 79 2.2 W 39 50 21 27 1005.2 1005.2 0.6
21/01:29am 19.1 13.5 15.4 79 2.2 W 39 50 21 27 1005.2 1005.2 0.6
21/01:00am 19.7 18.0 16.2 80 2.1 NW 20 30 11 16 1004.8 1004.8 0.6
21/12:30am 19.1 17.9 16.0 82 1.8 NW 17 20 9 11 1004.9 1004.9 0.6
21/12:00am 19.2 18.3 15.9 81 2.0 NW 15 20 8 11 1004.9 1004.9 0.6
 
Date/Time
EDT
Temp
°C
App
Temp
°C
Dew
Point
Rel
Hum
%
Delta-T
°C
Wind Press
QNH
hPa
Press
MSL
hPa
Rain
since 9 am
mm
Dir
 
Spd
km/h
Gust
km/h
Spd
kts
Gust
kts
20/11:30pm 19.2 17.6 16.1 82 1.8 NNW 19 24 10 13 1004.8 1004.8 0.6
20/11:00pm 19.5 17.4 16.2 81 2.0 NNW 22 28 12 15 1004.9 1004.9 0.6
20/10:30pm 19.4 17.8 15.9 80 2.1 NNW 19 22 10 12 1005.1 1005.1 0.6

Other Formats:

Comma delimited format used in spreadsheet applications
http://www.bom.gov.au/fwo/IDV60801/IDV60801.94854.axf

JavaScript Object Notation format (JSON) in row-major order
http://www.bom.gov.au/fwo/IDV60801/IDV60801.94854.json